Time;durP1;ratioP1;P1;durP2;ratioP2;P2;SDS_P1;SDS_P2;PMS_P1;PMS_P2;Temp;Humidity;BMP_temperature;BMP_pressure;BME280_temperature;BME280_humidity;BME280_pressure;Samples;Min_cycle;Max_cycle;Signal;HPM_P1;HPM_P2
2023/01/11 00:00:32;;;;;;;41.07;30.30;;;;;17.90;99823.00;;;;2078023;28;20252;-52
2023/01/11 00:01:33;;;;;;;37.70;28.73;;;;;17.80;99807.00;;;;2078175;28;20215;-53
2023/01/11 00:02:33;;;;;;;33.07;23.50;;;;;17.80;99811.00;;;;2077098;28;20211;-52
2023/01/11 00:03:33;;;;;;;33.20;25.87;;;;;17.80;99813.00;;;;2078098;28;20211;-52
2023/01/11 00:04:34;;;;;;;34.27;25.33;;;;;17.80;99820.00;;;;2078236;28;20277;-52
2023/01/11 00:05:38;;;;;;;31.20;24.07;;;;;17.80;99824.00;;;;2077448;28;20267;-52
2023/01/11 00:06:39;;;;;;;34.80;24.73;;;;;17.80;99819.00;;;;2077620;28;20249;-53
2023/01/11 00:07:39;;;;;;;33.40;23.70;;;;;17.80;99820.00;;;;2077577;28;24770;-52
2023/01/11 00:08:40;;;;;;;30.43;24.17;;;;;17.80;99818.00;;;;2078181;28;20221;-52
2023/01/11 00:09:40;;;;;;;33.80;26.13;;;;;17.80;99827.00;;;;2077921;28;20689;-52
2023/01/11 00:10:41;;;;;;;28.50;22.40;;;;;17.80;99826.00;;;;2076015;28;20219;-52
2023/01/11 00:11:41;;;;;;;30.13;23.30;;;;;17.80;99813.00;;;;2077993;28;20230;-52
2023/01/11 00:12:41;;;;;;;28.00;21.30;;;;;17.80;99822.00;;;;2077247;28;20369;-52
2023/01/11 00:13:43;;;;;;;28.50;22.50;;;;;17.70;99824.00;;;;2077599;28;20290;-52
2023/01/11 00:14:44;;;;;;;29.60;22.17;;;;;17.70;99812.00;;;;2076948;28;20222;-53
2023/01/11 00:15:44;;;;;;;27.77;21.87;;;;;17.70;99820.00;;;;2077553;28;20226;-53
2023/01/11 00:16:44;;;;;;;31.60;22.20;;;;;17.70;99817.00;;;;2077435;28;20250;-52
2023/01/11 00:17:45;;;;;;;26.77;21.00;;;;;17.70;99822.00;;;;2077916;28;20227;-52
2023/01/11 00:18:45;;;;;;;27.23;21.43;;;;;17.70;99819.00;;;;2077950;28;20297;-52
2023/01/11 00:19:45;;;;;;;29.63;22.70;;;;;17.70;99813.00;;;;2077711;28;20292;-52
2023/01/11 00:20:46;;;;;;;28.27;22.90;;;;;17.70;99805.00;;;;2077092;28;20245;-52
2023/01/11 00:21:48;;;;;;;24.73;19.60;;;;;17.70;99804.00;;;;2076399;28;20215;-52
2023/01/11 00:22:48;;;;;;;27.55;20.50;;;;;17.70;99804.00;;;;2077476;28;20285;-52
2023/01/11 00:23:48;;;;;;;27.17;20.97;;;;;17.70;99795.00;;;;2077707;28;20225;-52
2023/01/11 00:24:49;;;;;;;23.00;19.80;;;;;17.70;99800.00;;;;2077538;28;20219;-52
2023/01/11 00:25:49;;;;;;;26.60;18.63;;;;;17.70;99796.00;;;;2076533;28;20633;-52
2023/01/11 00:26:49;;;;;;;24.13;19.50;;;;;17.70;99806.00;;;;2077402;28;20656;-52
2023/01/11 00:27:50;;;;;;;26.07;19.80;;;;;17.70;99806.00;;;;2077383;28;20650;-52
2023/01/11 00:28:51;;;;;;;24.80;18.90;;;;;17.70;99798.00;;;;2077593;28;20587;-58
2023/01/11 00:29:51;;;;;;;23.38;18.70;;;;;17.60;99791.00;;;;2077710;28;20304;-52
2023/01/11 00:30:52;;;;;;;24.10;18.90;;;;;17.70;99797.00;;;;2077765;28;20219;-52
2023/01/11 00:31:52;;;;;;;25.50;18.60;;;;;17.70;99793.00;;;;2076311;28;20223;-52
2023/01/11 00:32:56;;;;;;;25.50;19.50;;;;;17.70;99785.00;;;;2077579;28;20299;-52
2023/01/11 00:33:56;;;;;;;23.33;16.23;;;;;17.60;99804.00;;;;2076953;28;20223;-52
2023/01/11 00:34:57;;;;;;;23.33;17.63;;;;;17.60;99796.00;;;;2077596;28;20214;-52
2023/01/11 00:35:57;;;;;;;20.70;16.47;;;;;17.60;99798.00;;;;2077687;28;20334;-53
2023/01/11 00:36:57;;;;;;;22.00;16.90;;;;;17.60;99787.00;;;;2077323;28;20242;-53
2023/01/11 00:37:58;;;;;;;21.90;16.70;;;;;17.60;99798.00;;;;2077192;28;20284;-52
2023/01/11 00:38:58;;;;;;;19.60;17.20;;;;;17.60;99787.00;;;;2077692;28;20220;-53
2023/01/11 00:39:58;;;;;;;20.00;16.23;;;;;17.60;99787.00;;;;2068730;28;20549;-53
2023/01/11 00:47:55;;;;;;;22.23;16.50;;;;;17.60;99795.00;;;;2069400;28;20249;-52
2023/01/11 00:48:53;;;;;;;18.23;13.82;;;;;17.60;99777.00;;;;2069910;28;20208;-50
2023/01/11 00:49:53;;;;;;;17.30;13.43;;;;;17.60;99787.00;;;;2069853;28;20216;-51
2023/01/11 00:50:54;;;;;;;19.20;14.70;;;;;17.50;99779.00;;;;2069772;28;20564;-54
2023/01/11 00:51:54;;;;;;;17.93;14.37;;;;;17.60;99795.00;;;;2059706;28;20899;-52
2023/01/11 00:52:55;;;;;;;16.10;12.83;;;;;17.60;99790.00;;;;2061114;28;20267;-51
2023/01/11 00:53:55;;;;;;;16.02;12.48;;;;;17.60;99790.00;;;;2068929;28;20240;-51
2023/01/11 00:54:56;;;;;;;16.50;12.30;;;;;17.50;99785.00;;;;2068992;28;20212;-52
2023/01/11 00:55:56;;;;;;;16.87;12.97;;;;;17.60;99790.00;;;;2069537;28;20223;-52
2023/01/11 00:56:56;;;;;;;14.83;12.10;;;;;17.60;99779.00;;;;2069681;28;20212;-53
2023/01/11 00:57:57;;;;;;;17.47;13.00;;;;;17.60;99784.00;;;;2069689;28;20302;-51
2023/01/11 00:58:57;;;;;;;14.80;12.47;;;;;17.50;99779.00;;;;2078260;28;20219;-53
2023/01/11 00:59:57;;;;;;;14.80;11.30;;;;;17.50;99775.00;;;;2077846;28;20225;-52
2023/01/11 01:01:04;;;;;;;14.67;11.57;;;;;17.50;99777.00;;;;2073030;28;20216;-52
2023/01/11 01:02:05;;;;;;;13.93;11.68;;;;;17.50;99785.00;;;;2076520;28;20226;-52
2023/01/11 01:03:05;;;;;;;14.77;12.03;;;;;17.50;99782.00;;;;2077824;28;20216;-53
2023/01/11 01:04:05;;;;;;;13.93;10.90;;;;;17.50;99777.00;;;;2077764;28;20217;-52
2023/01/11 01:05:06;;;;;;;14.60;11.27;;;;;17.50;99781.00;;;;2077800;28;20218;-52
2023/01/11 01:06:06;;;;;;;16.07;12.30;;;;;17.50;99778.00;;;;2077879;28;20236;-52
2023/01/11 01:07:07;;;;;;;12.80;10.20;;;;;17.50;99788.00;;;;2077815;28;20813;-52
2023/01/11 01:08:07;;;;;;;15.77;11.97;;;;;17.50;99777.00;;;;2077796;28;20226;-52
2023/01/11 01:09:07;;;;;;;15.20;12.63;;;;;17.50;99781.00;;;;2077309;28;20310;-52
2023/01/11 01:10:09;;;;;;;13.63;10.57;;;;;17.50;99774.00;;;;2077940;28;20281;-52
2023/01/11 01:11:09;;;;;;;15.32;11.85;;;;;17.50;99774.00;;;;2077536;28;20221;-52
2023/01/11 01:12:10;;;;;;;14.83;10.90;;;;;17.50;99777.00;;;;2076505;28;20214;-53
2023/01/11 01:14:29;;;;;;;13.10;10.40;;;;;17.50;99778.00;;;;2077828;28;20220;-52
2023/01/11 01:15:30;;;;;;;14.33;10.73;;;;;17.50;99773.00;;;;2077937;28;20211;-53
2023/01/11 01:16:31;;;;;;;14.37;11.17;;;;;17.50;99777.00;;;;2076845;28;20314;-56
2023/01/11 01:17:31;;;;;;;13.40;10.67;;;;;17.50;99779.00;;;;2075320;28;20242;-53
2023/01/11 01:18:31;;;;;;;12.37;10.47;;;;;17.50;99771.00;;;;2077307;28;20460;-53
2023/01/11 01:19:33;;;;;;;14.13;10.10;;;;;17.50;99773.00;;;;2078204;28;20213;-52
2023/01/11 01:20:33;;;;;;;12.38;10.27;;;;;17.40;99773.00;;;;2079172;28;20768;-52
2023/01/11 01:21:33;;;;;;;13.17;10.20;;;;;17.30;99767.00;;;;2078536;28;20218;-52
2023/01/11 01:22:34;;;;;;;12.33;9.80;;;;;17.40;99768.00;;;;2078124;28;20315;-52
2023/01/11 01:23:34;;;;;;;14.03;11.23;;;;;17.40;99764.00;;;;2079260;28;20211;-52
2023/01/11 01:24:34;;;;;;;13.80;9.93;;;;;17.40;99765.00;;;;2079234;28;20227;-53
2023/01/11 01:25:36;;;;;;;14.80;9.97;;;;;17.40;99766.00;;;;2077583;28;20295;-53
2023/01/11 01:26:36;;;;;;;13.38;10.48;;;;;17.40;99778.00;;;;2079250;28;20268;-52
2023/01/11 01:27:37;;;;;;;10.23;8.93;;;;;17.40;99766.00;;;;2079461;28;20211;-53
2023/01/11 01:28:37;;;;;;;12.37;9.30;;;;;17.40;99773.00;;;;2079219;28;20222;-54
2023/01/11 01:29:37;;;;;;;12.00;9.57;;;;;17.40;99766.00;;;;2079129;28;20210;-52
2023/01/11 01:30:40;;;;;;;13.30;9.93;;;;;17.40;99758.00;;;;2079252;28;20215;-52
2023/01/11 01:31:41;;;;;;;13.27;9.00;;;;;17.40;99782.00;;;;2078870;28;20711;-53
2023/01/11 01:32:41;;;;;;;11.40;9.10;;;;;17.40;99781.00;;;;2078339;28;20235;-52
2023/01/11 01:33:42;;;;;;;10.90;8.70;;;;;17.40;99776.00;;;;2079207;28;20819;-52
2023/01/11 01:34:42;;;;;;;11.27;8.90;;;;;17.40;99767.00;;;;2079222;28;20234;-51
2023/01/11 01:35:42;;;;;;;11.23;8.83;;;;;17.40;99765.00;;;;2078793;28;20216;-52
2023/01/11 01:36:43;;;;;;;10.67;8.30;;;;;17.40;99764.00;;;;2079333;28;20223;-54
2023/01/11 01:37:43;;;;;;;10.90;8.67;;;;;17.40;99765.00;;;;2079187;28;20296;-54
2023/01/11 01:38:44;;;;;;;10.63;8.23;;;;;17.40;99754.00;;;;2079272;28;20236;-53
2023/01/11 01:39:44;;;;;;;11.30;8.20;;;;;17.40;99751.00;;;;2079411;28;20222;-54
2023/01/11 01:40:45;;;;;;;12.17;8.37;;;;;17.40;99763.00;;;;2078616;28;20287;-54
2023/01/11 01:41:46;;;;;;;13.55;9.45;;;;;17.40;99765.00;;;;2078880;28;21009;-52
2023/01/11 01:42:46;;;;;;;11.13;8.47;;;;;17.30;99758.00;;;;2078340;28;20222;-52
2023/01/11 01:43:52;;;;;;;10.63;8.90;;;;;17.40;99733.00;;;;2078363;28;20225;-51
2023/01/11 01:45:25;;;;;;;11.77;8.40;;;;;17.40;99749.00;;;;2078553;28;20703;-54
2023/01/11 01:46:26;;;;;;;11.35;8.32;;;;;17.40;99765.00;;;;2077561;28;20346;-52
2023/01/11 01:47:31;;;;;;;10.80;7.32;;;;;17.40;99753.00;;;;2079197;28;20723;-51
2023/01/11 01:48:32;;;;;;;10.70;7.82;;;;;17.40;99748.00;;;;2079133;28;20581;-54
2023/01/11 01:49:32;;;;;;;9.47;7.60;;;;;17.40;99746.00;;;;2079040;28;20208;-53
2023/01/11 01:50:43;;;;;;;11.00;8.23;;;;;17.40;99748.00;;;;2070334;28;20220;-55
2023/01/11 01:51:53;;;;;;;9.52;7.90;;;;;17.40;99745.00;;;;2071076;28;20231;-51
2023/01/11 01:52:55;;;;;;;9.82;7.47;;;;;17.30;99745.00;;;;2078446;28;20211;-54
2023/01/11 01:53:57;;;;;;;8.13;6.80;;;;;17.40;99738.00;;;;2070635;28;20234;-51
2023/01/11 01:54:58;;;;;;;10.70;7.90;;;;;17.30;99748.00;;;;2062015;28;20890;-52
2023/01/11 01:55:59;;;;;;;7.88;6.32;;;;;17.30;99734.00;;;;2047289;28;20743;-53
2023/01/11 01:57:04;;;;;;;9.30;6.50;;;;;17.30;99742.00;;;;2054119;28;20618;-51
2023/01/11 01:58:08;;;;;;;8.05;6.70;;;;;17.30;99742.00;;;;2062508;28;20785;-55
2023/01/11 01:59:11;;;;;;;8.73;6.93;;;;;17.30;99726.00;;;;2077863;28;20219;-52
2023/01/11 02:00:12;;;;;;;9.55;7.38;;;;;17.30;99731.00;;;;2071296;28;20204;-53
2023/01/11 02:02:32;;;;;;;7.95;6.40;;;;;17.30;99732.00;;;;2071970;28;20558;-51
2023/01/11 02:03:32;;;;;;;6.87;6.03;;;;;17.30;99738.00;;;;2072518;28;20214;-52
2023/01/11 02:04:42;;;;;;;7.63;6.33;;;;;17.30;99739.00;;;;2078349;28;20306;-54
2023/01/11 02:05:42;;;;;;;7.68;6.78;;;;;17.30;99729.00;;;;2072720;28;20620;-53
2023/01/11 02:06:42;;;;;;;8.20;6.63;;;;;17.30;99730.00;;;;2070499;28;20218;-53
2023/01/11 02:07:43;;;;;;;8.30;6.63;;;;;17.30;99737.00;;;;2070204;28;20224;-53
2023/01/11 02:08:45;;;;;;;8.90;6.50;;;;;17.30;99719.00;;;;2070270;28;20262;-54
2023/01/11 02:09:57;;;;;;;7.07;5.32;;;;;17.30;99732.00;;;;2069998;28;20222;-54
2023/01/11 02:10:57;;;;;;;6.05;5.45;;;;;17.30;99736.00;;;;2055424;28;20206;-54
2023/01/11 02:11:57;;;;;;;7.33;5.90;;;;;17.30;99732.00;;;;2059772;28;20762;-50
2023/01/11 02:13:04;;;;;;;7.70;5.77;;;;;17.30;99716.00;;;;2061948;28;20233;-54
2023/01/11 02:14:06;;;;;;;7.40;5.80;;;;;17.30;99729.00;;;;2062130;28;20250;-52
2023/01/11 02:15:07;;;;;;;6.75;5.50;;;;;17.30;99729.00;;;;2061531;28;20231;-53
2023/01/11 02:16:08;;;;;;;7.53;5.20;;;;;17.30;99732.00;;;;2069298;28;20214;-54
2023/01/11 02:17:09;;;;;;;7.30;5.10;;;;;17.30;99718.00;;;;2069961;28;20273;-53
2023/01/11 02:18:11;;;;;;;5.97;5.00;;;;;17.30;99721.00;;;;2069839;28;20299;-54
2023/01/11 02:19:21;;;;;;;5.70;4.90;;;;;17.30;99681.00;;;;2078648;28;20234;-54
2023/01/11 02:20:52;;;;;;;7.68;5.15;;;;;17.30;99735.00;;;;2078219;28;20216;-53
2023/01/11 02:21:55;;;;;;;8.07;6.00;;;;;17.30;99734.00;;;;2071422;28;20215;-54
2023/01/11 02:23:26;;;;;;;7.00;4.72;;;;;17.30;99736.00;;;;2069258;28;20225;-54
2023/01/11 02:24:54;;;;;;;6.50;4.90;;;;;17.20;99736.00;;;;2059488;28;20287;-53
2023/01/11 02:26:21;;;;;;;6.57;5.07;;;;;17.30;99737.00;;;;2065805;28;20245;-53
2023/01/11 02:27:30;;;;;;;6.53;5.13;;;;;17.20;99728.00;;;;2072674;28;20211;-54
2023/01/11 02:28:38;;;;;;;6.63;5.10;;;;;17.20;99726.00;;;;2069666;28;20207;-53
2023/01/11 02:30:05;;;;;;;5.93;4.95;;;;;17.30;99717.00;;;;2070121;28;20321;-51
2023/01/11 02:31:35;;;;;;;4.45;4.00;;;;;17.20;99727.00;;;;2070934;28;20506;-52
2023/01/11 02:33:12;;;;;;;4.75;4.10;;;;;17.20;99726.00;;;;2067277;28;20317;-53
2023/01/11 02:34:33;;;;;;;6.65;5.20;;;;;17.20;99716.00;;;;2062819;28;20385;-52
2023/01/11 02:35:56;;;;;;;5.70;4.53;;;;;17.20;99713.00;;;;2077978;28;20284;-54
2023/01/11 02:37:26;;;;;;;5.90;4.18;;;;;17.20;99713.00;;;;2069873;28;20225;-52
2023/01/11 02:38:32;;;;;;;5.60;4.50;;;;;17.20;99710.00;;;;2075883;28;20213;-52
2023/01/11 02:39:53;;;;;;;5.10;4.38;;;;;17.20;99715.00;;;;2063510;28;20222;-52
2023/01/11 02:41:02;;;;;;;5.80;4.80;;;;;17.20;99709.00;;;;2068086;28;20754;-52
2023/01/11 02:45:22;;;;;;;5.93;3.80;;;;;17.20;99708.00;;;;2072905;28;21016;-54
2023/01/11 02:46:43;;;;;;;5.90;4.60;;;;;17.20;99715.00;;;;2073274;28;20213;-54
2023/01/11 02:47:56;;;;;;;6.05;4.60;;;;;17.20;99717.00;;;;2070758;28;20233;-54
2023/01/11 02:49:11;;;;;;;5.78;4.10;;;;;17.20;99709.00;;;;2078578;28;20215;-53
2023/01/11 02:50:33;;;;;;;5.18;3.97;;;;;17.20;99703.00;;;;2078136;28;20216;-54
2023/01/11 02:51:36;;;;;;;4.30;3.63;;;;;17.20;99707.00;;;;2071301;28;20301;-53
2023/01/11 02:52:49;;;;;;;4.63;3.80;;;;;17.20;99715.00;;;;2072039;28;20257;-51
2023/01/11 02:53:54;;;;;;;4.45;3.45;;;;;17.20;99709.00;;;;2077230;28;20257;-54
2023/01/11 02:54:56;;;;;;;5.07;3.70;;;;;17.20;99706.00;;;;2070356;28;20208;-53
2023/01/11 02:55:58;;;;;;;3.97;3.20;;;;;17.20;99701.00;;;;2069911;28;20223;-54
2023/01/11 02:56:59;;;;;;;4.75;3.90;;;;;17.20;99703.00;;;;2070362;28;20233;-51
2023/01/11 02:58:00;;;;;;;4.93;3.67;;;;;17.20;99708.00;;;;2069988;28;20311;-52
2023/01/11 02:59:00;;;;;;;4.10;3.40;;;;;17.20;99705.00;;;;2061783;28;20294;-54
2023/01/11 03:00:00;;;;;;;4.00;3.60;;;;;17.20;99687.00;;;;2061527;28;20546;-53
2023/01/11 03:01:01;;;;;;;4.60;3.63;;;;;17.20;99704.00;;;;2069945;28;20218;-53
2023/01/11 03:02:01;;;;;;;6.13;3.43;;;;;17.20;99705.00;;;;2084672;28;20250;-51
2023/01/11 03:03:16;;;;;;;4.37;3.57;;;;;17.20;99705.00;;;;2078752;28;20207;-52
2023/01/11 03:04:35;;;;;;;4.20;3.60;;;;;17.10;99694.00;;;;2078137;28;20249;-55
2023/01/11 03:05:41;;;;;;;4.25;3.45;;;;;17.20;99686.00;;;;2070999;28;20214;-52
2023/01/11 03:06:41;;;;;;;4.60;3.50;;;;;17.10;99696.00;;;;2061510;28;20244;-54
2023/01/11 03:07:47;;;;;;;4.17;3.60;;;;;17.10;99692.00;;;;2061482;28;20219;-52
2023/01/11 03:09:25;;;;;;;3.70;3.05;;;;;17.20;99696.00;;;;2070419;28;20223;-54
2023/01/11 03:10:44;;;;;;;4.05;2.90;;;;;17.10;99695.00;;;;2063768;28;20295;-51
2023/01/11 03:13:18;;;;;;;3.75;2.95;;;;;17.10;99688.00;;;;2070990;28;20219;-54
2023/01/11 03:14:27;;;;;;;3.65;3.28;;;;;17.10;99687.00;;;;2075025;28;20372;-51
2023/01/11 03:16:03;;;;;;;3.42;3.13;;;;;17.10;99682.00;;;;2078001;28;20620;-51
2023/01/11 03:17:13;;;;;;;4.85;3.38;;;;;17.10;99693.00;;;;2075679;28;20268;-52
2023/01/11 03:18:41;;;;;;;4.85;3.15;;;;;17.10;99680.00;;;;2077959;28;20202;-53
2023/01/11 03:19:52;;;;;;;3.42;2.70;;;;;17.20;99674.00;;;;2076589;28;20214;-52
2023/01/11 03:21:00;;;;;;;4.30;3.20;;;;;17.10;99679.00;;;;2071528;28;20215;-52
2023/01/11 03:22:10;;;;;;;4.07;2.35;;;;;17.10;99675.00;;;;2066115;28;20364;-52
2023/01/11 03:23:23;;;;;;;3.50;3.20;;;;;17.10;99669.00;;;;2071486;28;20219;-52
2023/01/11 03:24:32;;;;;;;2.80;2.50;;;;;17.10;99682.00;;;;2054812;28;20219;-52
2023/01/11 03:25:54;;;;;;;4.40;3.22;;;;;17.10;99687.00;;;;2070469;28;20214;-52
2023/01/11 03:26:57;;;;;;;3.42;2.72;;;;;17.10;99681.00;;;;2074486;28;20283;-53
2023/01/11 03:28:01;;;;;;;2.95;2.55;;;;;17.10;99681.00;;;;2078535;28;20683;-52
2023/01/11 03:29:13;;;;;;;3.30;2.33;;;;;17.10;99682.00;;;;2077791;28;20804;-52
2023/01/11 03:30:17;;;;;;;4.35;2.80;;;;;17.10;99683.00;;;;2061112;28;20219;-52
2023/01/11 03:31:48;;;;;;;3.60;2.55;;;;;17.10;99677.00;;;;2069920;28;20226;-52
2023/01/11 03:33:15;;;;;;;4.05;2.72;;;;;17.10;99684.00;;;;2077741;28;20981;-52
2023/01/11 03:34:31;;;;;;;3.65;2.90;;;;;17.10;99677.00;;;;2067762;28;20318;-52
2023/01/11 03:35:40;;;;;;;3.05;2.35;;;;;17.10;99678.00;;;;2077563;28;20292;-53
2023/01/11 03:36:44;;;;;;;3.22;2.40;;;;;17.10;99679.00;;;;2069412;28;20995;-52
2023/01/11 03:38:00;;;;;;;3.60;2.58;;;;;17.10;99680.00;;;;2069767;28;20226;-52
2023/01/11 03:39:35;;;;;;;4.25;2.60;;;;;17.10;99677.00;;;;2071537;28;20223;-52
2023/01/11 03:40:56;;;;;;;3.30;2.42;;;;;17.10;99667.00;;;;2077034;28;20323;-53
2023/01/11 03:41:58;;;;;;;2.78;2.15;;;;;17.10;99674.00;;;;2073860;28;20214;-52
2023/01/11 03:43:10;;;;;;;3.55;2.45;;;;;17.10;99678.00;;;;2061543;28;20239;-52
2023/01/11 03:44:11;;;;;;;3.13;2.30;;;;;17.10;99659.00;;;;2071152;28;20259;-52
2023/01/11 03:45:12;;;;;;;3.80;2.53;;;;;17.10;99670.00;;;;2069282;28;20594;-52
2023/01/11 03:46:14;;;;;;;2.43;2.10;;;;;17.10;99660.00;;;;2069253;28;20231;-52
2023/01/11 03:47:15;;;;;;;3.47;2.42;;;;;17.10;99677.00;;;;2069577;28;20215;-52
2023/01/11 03:48:31;;;;;;;2.93;2.27;;;;;17.10;99664.00;;;;2069246;28;20290;-52
2023/01/11 03:49:44;;;;;;;2.50;1.98;;;;;17.10;99665.00;;;;2071333;28;20249;-52
2023/01/11 03:50:44;;;;;;;4.43;2.40;;;;;17.10;99666.00;;;;2054635;28;20226;-53
2023/01/11 03:51:45;;;;;;;2.47;2.20;;;;;17.10;99623.00;;;;2046311;28;20301;-52
2023/01/11 03:52:45;;;;;;;2.40;1.93;;;;;17.10;99667.00;;;;2060248;28;20757;-52
2023/01/11 03:53:46;;;;;;;2.80;2.17;;;;;17.10;99675.00;;;;2061098;28;20226;-52
2023/01/11 03:54:47;;;;;;;2.70;2.00;;;;;17.10;99675.00;;;;2061307;28;20234;-52
2023/01/11 03:55:50;;;;;;;2.93;2.30;;;;;17.10;99668.00;;;;2075906;28;20213;-54
2023/01/11 03:57:23;;;;;;;3.33;2.38;;;;;17.10;99665.00;;;;2069448;28;20225;-53
2023/01/11 03:58:26;;;;;;;2.30;1.70;;;;;17.10;99673.00;;;;2065482;28;20856;-53
2023/01/11 03:59:27;;;;;;;2.40;1.67;;;;;17.10;99669.00;;;;2069268;28;20242;-52
2023/01/11 04:00:27;;;;;;;2.83;1.97;;;;;17.10;99667.00;;;;2069248;28;20210;-53
2023/01/11 04:01:27;;;;;;;2.20;1.97;;;;;17.10;99666.00;;;;2061420;28;20217;-53
2023/01/11 04:02:33;;;;;;;2.70;2.00;;;;;17.10;99666.00;;;;2068133;28;20326;-52
2023/01/11 04:03:33;;;;;;;2.10;1.70;;;;;17.10;99662.00;;;;2069784;28;20294;-53
2023/01/11 04:04:33;;;;;;;2.80;2.00;;;;;17.10;99672.00;;;;2077480;28;20211;-53
2023/01/11 04:05:34;;;;;;;2.40;2.07;;;;;17.00;99664.00;;;;2078457;28;20209;-52
2023/01/11 04:06:35;;;;;;;2.43;2.00;;;;;17.00;99651.00;;;;2077568;28;20294;-52
2023/01/11 04:07:35;;;;;;;3.00;2.33;;;;;17.00;99658.00;;;;2061369;28;20212;-52
2023/01/11 04:08:35;;;;;;;1.87;1.63;;;;;17.10;99658.00;;;;2062494;28;20978;-52
2023/01/11 04:09:36;;;;;;;4.50;2.00;;;;;17.00;99654.00;;;;2077485;28;20209;-52
2023/01/11 04:10:36;;;;;;;2.33;2.10;;;;;17.00;99648.00;;;;2077851;28;20215;-52
2023/01/11 04:11:37;;;;;;;2.30;1.70;;;;;17.10;99645.00;;;;2078311;28;20206;-53
2023/01/11 04:12:37;;;;;;;1.97;1.50;;;;;17.10;99651.00;;;;2076866;28;20442;-52
2023/01/11 04:13:37;;;;;;;2.07;1.67;;;;;17.10;99646.00;;;;2078135;28;20205;-53
2023/01/11 04:14:38;;;;;;;2.17;1.90;;;;;17.10;99645.00;;;;2078110;28;20238;-52
2023/01/11 04:15:38;;;;;;;2.20;1.70;;;;;17.00;99643.00;;;;2078134;28;20218;-52
2023/01/11 04:16:38;;;;;;;2.20;1.63;;;;;17.00;99647.00;;;;2078046;28;20269;-53
2023/01/11 04:17:39;;;;;;;2.23;1.60;;;;;17.00;99647.00;;;;2078127;28;20280;-52
2023/01/11 04:18:40;;;;;;;1.43;1.30;;;;;17.00;99653.00;;;;2078088;28;20502;-52
2023/01/11 04:19:40;;;;;;;2.60;1.70;;;;;17.00;99657.00;;;;2077518;28;20273;-52
2023/01/11 04:20:40;;;;;;;2.07;1.80;;;;;17.10;99651.00;;;;2077125;28;20216;-52
2023/01/11 04:21:41;;;;;;;2.10;1.53;;;;;17.00;99651.00;;;;2078121;28;20206;-52
2023/01/11 04:22:41;;;;;;;2.47;1.87;;;;;17.00;99663.00;;;;2077000;28;20212;-53
2023/01/11 04:23:41;;;;;;;1.63;1.43;;;;;17.00;99657.00;;;;2078546;28;20559;-52
2023/01/11 04:24:42;;;;;;;2.60;1.80;;;;;17.00;99655.00;;;;2078529;28;20248;-53
2023/01/11 04:25:42;;;;;;;2.00;1.50;;;;;17.00;99651.00;;;;2076064;28;20253;-52
2023/01/11 04:26:43;;;;;;;2.30;1.60;;;;;17.00;99653.00;;;;2079560;28;20220;-52
2023/01/11 04:27:44;;;;;;;2.87;1.43;;;;;17.00;99656.00;;;;2079503;28;20217;-52
2023/01/11 04:28:44;;;;;;;2.00;1.70;;;;;17.00;99648.00;;;;2080177;28;20253;-54
2023/01/11 04:29:44;;;;;;;2.30;1.40;;;;;17.00;99650.00;;;;2079179;28;20619;-53
2023/01/11 04:30:45;;;;;;;2.63;1.60;;;;;17.00;99652.00;;;;2079302;28;20220;-54
2023/01/11 04:31:45;;;;;;;2.00;1.50;;;;;17.00;99656.00;;;;2079044;28;20300;-54
2023/01/11 04:32:46;;;;;;;2.10;1.47;;;;;17.00;99647.00;;;;2078639;28;20207;-54
2023/01/11 04:33:46;;;;;;;2.93;2.00;;;;;17.00;99645.00;;;;2078755;28;20218;-52
2023/01/11 04:34:46;;;;;;;2.50;1.93;;;;;17.00;99638.00;;;;2078303;28;20218;-52
2023/01/11 04:35:48;;;;;;;1.63;1.37;;;;;17.10;99635.00;;;;2076701;28;20218;-55
2023/01/11 04:36:49;;;;;;;2.40;1.83;;;;;17.00;99642.00;;;;2078016;28;20217;-52
2023/01/11 04:37:53;;;;;;;2.50;1.20;;;;;17.00;99626.00;;;;2077942;28;20586;-53
2023/01/11 04:38:53;;;;;;;2.88;1.70;;;;;17.00;99632.00;;;;2076092;28;20339;-54
2023/01/11 04:39:53;;;;;;;2.20;1.57;;;;;17.00;99634.00;;;;2077094;28;20259;-54
2023/01/11 04:42:17;;;;;;;1.88;1.58;;;;;17.00;99614.00;;;;2075966;28;20901;-54
2023/01/11 04:42:17;;;;;;;2.00;1.33;;;;;17.00;99631.00;;;;2077066;28;20214;-52
2023/01/11 04:43:17;;;;;;;1.55;1.27;;;;;17.00;99638.00;;;;2078167;28;20309;-54
2023/01/11 04:44:17;;;;;;;1.40;1.23;;;;;17.00;99634.00;;;;2077918;28;21120;-53
2023/01/11 04:45:18;;;;;;;1.73;1.60;;;;;17.00;99633.00;;;;2077844;28;20709;-52
2023/01/11 04:46:18;;;;;;;2.20;1.50;;;;;17.00;99641.00;;;;2077629;28;21016;-50
2023/01/11 04:47:20;;;;;;;1.80;1.20;;;;;17.00;99634.00;;;;2078038;28;20211;-52
2023/01/11 04:48:20;;;;;;;1.67;1.30;;;;;17.00;99631.00;;;;2078069;28;20293;-54
2023/01/11 04:49:20;;;;;;;2.40;1.37;;;;;17.00;99631.00;;;;2078128;28;20217;-52
2023/01/11 04:50:25;;;;;;;1.53;1.00;;;;;17.00;99639.00;;;;2078030;28;20231;-52
2023/01/11 04:51:25;;;;;;;1.60;1.20;;;;;17.00;99631.00;;;;2077088;28;20222;-52
2023/01/11 04:52:25;;;;;;;2.87;1.30;;;;;17.00;99634.00;;;;2069463;28;20264;-52
2023/01/11 04:53:25;;;;;;;1.83;1.60;;;;;17.00;99636.00;;;;2078934;28;20298;-51
2023/01/11 04:54:26;;;;;;;1.83;1.37;;;;;17.00;99637.00;;;;2079589;28;20230;-52
2023/01/11 04:55:26;;;;;;;1.70;1.37;;;;;17.00;99640.00;;;;2079434;28;20220;-52
2023/01/11 04:56:28;;;;;;;2.03;1.30;;;;;17.00;99629.00;;;;2079575;28;20226;-51
2023/01/11 04:57:28;;;;;;;1.40;1.10;;;;;17.00;99627.00;;;;2079662;28;20220;-51
2023/01/11 04:58:29;;;;;;;1.67;1.23;;;;;17.00;99634.00;;;;2079844;28;21053;-54
2023/01/11 04:59:29;;;;;;;1.60;1.10;;;;;17.00;99637.00;;;;2076563;28;21160;-54
2023/01/11 05:00:29;;;;;;;1.67;1.23;;;;;17.00;99643.00;;;;2079730;28;20222;-52
2023/01/11 05:01:30;;;;;;;1.57;1.20;;;;;17.00;99636.00;;;;2079615;28;20670;-53
2023/01/11 05:02:30;;;;;;;1.80;1.30;;;;;17.00;99643.00;;;;2078246;28;20700;-52
2023/01/11 05:03:31;;;;;;;1.70;1.23;;;;;17.00;99639.00;;;;2079363;28;20591;-52
2023/01/11 05:04:31;;;;;;;1.70;1.10;;;;;17.00;99644.00;;;;2079473;28;20622;-52
2023/01/11 05:05:32;;;;;;;1.40;1.20;;;;;17.00;99635.00;;;;2078915;28;20469;-52
2023/01/11 05:06:33;;;;;;;1.60;1.10;;;;;17.00;99640.00;;;;2079564;28;20215;-51
2023/01/11 05:07:33;;;;;;;1.60;1.10;;;;;17.00;99648.00;;;;2079575;28;20267;-51
2023/01/11 05:08:34;;;;;;;2.87;1.50;;;;;17.00;99642.00;;;;2079639;28;20215;-50
2023/01/11 05:09:34;;;;;;;1.43;0.93;;;;;17.00;99634.00;;;;2079488;28;20215;-52
2023/01/11 05:10:34;;;;;;;1.40;1.10;;;;;17.00;99610.00;;;;2079633;28;20222;-52
2023/01/11 05:11:35;;;;;;;3.57;1.20;;;;;17.00;99647.00;;;;2079173;28;20584;-51
2023/01/11 05:12:35;;;;;;;2.03;1.30;;;;;17.00;99638.00;;;;2073388;28;20785;-57
2023/01/11 05:13:41;;;;;;;2.33;1.00;;;;;17.00;99643.00;;;;2079533;28;20691;-53
2023/01/11 05:14:42;;;;;;;2.38;1.00;;;;;17.00;99647.00;;;;2079607;28;20206;-51
2023/01/11 05:15:42;;;;;;;1.70;1.10;;;;;17.00;99643.00;;;;2078920;28;20305;-50
2023/01/11 05:16:42;;;;;;;1.73;0.80;;;;;17.00;99639.00;;;;2073778;28;20221;-55
2023/01/11 05:17:43;;;;;;;1.60;1.10;;;;;17.00;99642.00;;;;2071743;28;20211;-53
2023/01/11 05:18:48;;;;;;;3.27;0.97;;;;;16.90;99639.00;;;;2079282;28;20216;-51
2023/01/11 05:19:48;;;;;;;2.38;1.20;;;;;17.00;99635.00;;;;2079552;28;20800;-52
2023/01/11 05:20:49;;;;;;;2.10;1.13;;;;;17.00;99632.00;;;;2077662;28;20230;-55
2023/01/11 05:21:49;;;;;;;1.20;0.90;;;;;17.00;99652.00;;;;2078043;28;20212;-53
2023/01/11 05:22:49;;;;;;;1.50;1.10;;;;;16.90;99645.00;;;;2078977;28;21013;-53
2023/01/11 05:23:50;;;;;;;2.53;1.20;;;;;17.00;99637.00;;;;2079108;28;20253;-53
2023/01/11 05:24:50;;;;;;;1.30;0.80;;;;;17.00;99634.00;;;;2079124;28;20306;-54
2023/01/11 05:25:50;;;;;;;1.33;0.83;;;;;17.00;99645.00;;;;2079558;28;20219;-53
2023/01/11 05:26:52;;;;;;;1.40;0.70;;;;;17.00;99640.00;;;;2079433;28;20218;-52
2023/01/11 05:27:52;;;;;;;1.40;1.00;;;;;17.00;99645.00;;;;2079653;28;20229;-53
2023/01/11 05:28:54;;;;;;;1.77;1.13;;;;;16.80;99640.00;;;;2079472;28;20215;-53
2023/01/11 05:29:54;;;;;;;1.80;1.10;;;;;17.00;99647.00;;;;2079537;28;20232;-52
2023/01/11 05:30:54;;;;;;;1.47;1.00;;;;;17.00;99647.00;;;;2079431;28;20894;-52
2023/01/11 05:31:54;;;;;;;2.67;1.10;;;;;17.00;99642.00;;;;2078215;28;20215;-51
2023/01/11 05:32:55;;;;;;;1.20;0.83;;;;;17.00;99641.00;;;;2078889;28;20745;-51